Time;durP1;ratioP1;P1;durP2;ratioP2;P2;SDS_P1;SDS_P2;PMS_P1;PMS_P2;Temp;Humidity;BMP_temperature;BMP_pressure;BME280_temperature;BME280_humidity;BME280_pressure;Samples;Min_cycle;Max_cycle;Signal;HPM_P1;HPM_P2
2022/07/25 00:01:17;;;;;;;;;;;;;;;18.56;69.66;97384.45;110441;1246;59764;-68
2022/07/25 00:03:49;;;;;;;;;;;;;;;18.54;70.29;97388.02;110352;1244;70381;-69
2022/07/25 00:06:19;;;;;;;;;;;;;;;18.52;70.69;97383.84;110458;1244;67591;-71
2022/07/25 00:08:48;;;;;;;;;;;;;;;18.49;70.78;97387.01;110076;1247;68449;-69
2022/07/25 00:11:20;;;;;;;;;;;;;;;18.46;72.35;97389.08;110323;1247;59698;-68
2022/07/25 00:13:54;;;;;;;;;;;;;;;18.41;70.52;97389.27;110304;1247;59689;-75
2022/07/25 00:16:24;;;;;;;;;;;;;;;18.35;68.44;97385.31;110450;1244;71331;-70
2022/07/25 00:18:54;;;;;;;;;;;;;;;18.28;69.86;97388.84;110385;1244;66808;-74
2022/07/25 00:21:25;;;;;;;;;;;;;;;18.22;71.13;97390.89;110366;1244;69512;-71
2022/07/25 00:23:55;;;;;;;;;;;;;;;18.17;73.15;97389.42;110198;1247;60070;-70
2022/07/25 00:26:25;;;;;;;;;;;;;;;18.14;71.51;97389.58;110271;1244;59670;-72
2022/07/25 00:28:55;;;;;;;;;;;;;;;18.10;67.86;97389.45;110236;1246;71548;-70
2022/07/25 00:31:25;;;;;;;;;;;;;;;18.05;68.38;97390.86;110208;1247;68407;-71
2022/07/25 00:33:55;;;;;;;;;;;;;;;17.99;67.23;97389.41;110235;1247;68453;-70
2022/07/25 00:36:25;;;;;;;;;;;;;;;17.92;67.45;97388.52;110539;1244;60036;-69
2022/07/25 00:38:55;;;;;;;;;;;;;;;17.86;68.11;97389.28;110142;1247;59760;-70
2022/07/25 00:41:24;;;;;;;;;;;;;;;17.81;72.26;97390.81;110576;1244;71521;-70
2022/07/25 00:43:53;;;;;;;;;;;;;;;17.75;69.12;97390.26;110459;1244;68759;-74
2022/07/25 00:46:22;;;;;;;;;;;;;;;17.68;68.48;97392.30;110396;1244;67448;-71
2022/07/25 00:48:54;;;;;;;;;;;;;;;17.60;69.12;97396.70;110310;1244;59741;-71
2022/07/25 00:51:25;;;;;;;;;;;;;;;17.52;72.32;97398.77;110385;1244;60091;-70
2022/07/25 00:53:56;;;;;;;;;;;;;;;17.44;73.05;97394.09;110218;1247;71708;-70
2022/07/25 00:56:26;;;;;;;;;;;;;;;17.37;70.09;97390.92;110531;1244;68499;-70
2022/07/25 00:58:55;;;;;;;;;;;;;;;17.29;71.38;97391.90;110210;1247;68654;-72
2022/07/25 01:01:25;;;;;;;;;;;;;;;17.21;76.33;97391.93;110201;1247;59713;-69
2022/07/25 01:03:54;;;;;;;;;;;;;;;17.15;76.90;97388.01;110373;1245;59699;-69
2022/07/25 01:06:25;;;;;;;;;;;;;;;17.11;76.49;97388.66;110231;1247;71478;-69
2022/07/25 01:08:55;;;;;;;;;;;;;;;17.05;74.50;97388.81;110503;1243;68617;-71
2022/07/25 01:11:24;;;;;;;;;;;;;;;16.99;76.65;97388.54;110280;1246;68566;-70
2022/07/25 01:13:54;;;;;;;;;;;;;;;16.93;76.75;97389.86;110233;1247;59687;-70
2022/07/25 01:16:25;;;;;;;;;;;;;;;16.89;77.15;97388.20;110327;1244;59697;-69
2022/07/25 01:18:55;;;;;;;;;;;;;;;16.86;77.73;97388.64;110231;1245;70038;-68
2022/07/25 01:21:26;;;;;;;;;;;;;;;16.85;76.52;97386.79;110222;1247;68585;-70
2022/07/25 01:23:56;;;;;;;;;;;;;;;16.83;73.38;97388.20;110217;1247;68706;-70
2022/07/25 01:26:26;;;;;;;;;;;;;;;16.81;72.43;97389.10;110231;1247;59763;-70
2022/07/25 01:28:57;;;;;;;;;;;;;;;16.77;72.37;97388.27;110409;1244;59704;-71
2022/07/25 01:31:26;;;;;;;;;;;;;;;16.73;73.13;97389.89;110373;1244;70743;-69
2022/07/25 01:33:57;;;;;;;;;;;;;;;16.72;78.40;97393.34;110229;1247;67230;-70
2022/07/25 01:36:28;;;;;;;;;;;;;;;16.65;78.51;97388.91;110463;1244;69389;-69
2022/07/25 01:39:00;;;;;;;;;;;;;;;16.59;76.54;97390.37;110398;1244;59769;-70
2022/07/25 01:41:30;;;;;;;;;;;;;;;16.56;79.44;97389.42;110366;1244;59746;-71
2022/07/25 01:44:00;;;;;;;;;;;;;;;16.54;80.44;97392.05;110258;1247;70743;-69
2022/07/25 01:46:32;;;;;;;;;;;;;;;16.52;79.81;97391.19;110240;1247;68610;-70
2022/07/25 01:49:03;;;;;;;;;;;;;;;16.50;78.60;97389.66;110197;1247;68702;-71
2022/07/25 01:51:33;;;;;;;;;;;;;;;16.48;79.24;97392.69;110253;1245;59735;-70
2022/07/25 01:54:02;;;;;;;;;;;;;;;16.45;79.99;97393.29;110260;1247;59625;-69
2022/07/25 01:56:41;;;;;;;;;;;;;;;16.42;80.10;97392.77;110298;1244;71387;-68
2022/07/25 01:59:15;;;;;;;;;;;;;;;16.37;80.49;97398.12;110292;1245;68559;-70
2022/07/25 02:01:45;;;;;;;;;;;;;;;16.33;80.19;97400.61;110445;1244;68772;-69
2022/07/25 02:04:16;;;;;;;;;;;;;;;16.31;81.20;97396.58;110343;1244;59763;-71
2022/07/25 02:06:46;;;;;;;;;;;;;;;16.31;81.75;97395.38;110168;1247;60207;-70
2022/07/25 02:09:17;;;;;;;;;;;;;;;16.30;81.81;97392.46;110347;1245;71511;-73
2022/07/25 02:11:48;;;;;;;;;;;;;;;16.27;81.70;97396.09;110533;1244;68528;-70
2022/07/25 02:14:21;;;;;;;;;;;;;;;16.25;81.26;97401.23;110434;1244;69856;-69
2022/07/25 02:16:51;;;;;;;;;;;;;;;16.22;81.18;97406.59;110329;1246;59676;-70
2022/07/25 02:19:21;;;;;;;;;;;;;;;16.22;81.33;97403.61;110452;1244;59666;-71
2022/07/25 02:21:50;;;;;;;;;;;;;;;16.21;81.42;97405.61;110389;1245;71522;-69
2022/07/25 02:24:20;;;;;;;;;;;;;;;16.21;81.63;97405.59;110535;1244;67828;-69
2022/07/25 02:26:50;;;;;;;;;;;;;;;16.22;80.06;97405.15;110167;1244;68289;-71
2022/07/25 02:29:22;;;;;;;;;;;;;;;16.24;81.83;97401.27;110563;1244;59741;-71
2022/07/25 02:31:52;;;;;;;;;;;;;;;16.23;82.38;97402.92;110263;1246;59729;-69
2022/07/25 02:34:22;;;;;;;;;;;;;;;16.22;81.57;97403.79;110149;1247;71562;-69
2022/07/25 02:36:52;;;;;;;;;;;;;;;16.20;81.69;97407.25;110256;1247;67434;-72
2022/07/25 02:39:22;;;;;;;;;;;;;;;16.20;81.91;97411.38;110169;1246;69415;-71
2022/07/25 02:41:52;;;;;;;;;;;;;;;16.21;80.12;97411.48;110196;1246;59766;-70
2022/07/25 02:44:23;;;;;;;;;;;;;;;16.22;78.87;97405.89;110316;1247;59734;-70
2022/07/25 02:46:52;;;;;;;;;;;;;;;16.23;78.08;97404.89;110166;1246;71480;-70
2022/07/25 02:49:21;;;;;;;;;;;;;;;16.23;76.29;97408.65;110218;1247;67599;-70
2022/07/25 02:51:51;;;;;;;;;;;;;;;16.21;75.72;97411.06;110319;1247;69405;-70
2022/07/25 02:54:22;;;;;;;;;;;;;;;16.20;75.85;97408.15;110193;1246;59735;-70
2022/07/25 02:56:53;;;;;;;;;;;;;;;16.18;75.49;97406.22;110294;1247;59684;-70
2022/07/25 02:59:24;;;;;;;;;;;;;;;16.16;78.88;97406.14;110233;1246;69704;-70
2022/07/25 03:02:00;;;;;;;;;;;;;;;16.15;82.03;97409.87;110142;1247;68506;-69
2022/07/25 03:04:30;;;;;;;;;;;;;;;16.14;82.64;97408.28;110181;1247;69849;-71
2022/07/25 03:07:00;;;;;;;;;;;;;;;16.13;83.02;97405.72;110394;1246;59745;-69
2022/07/25 03:09:30;;;;;;;;;;;;;;;16.11;82.96;97406.71;110172;1247;59660;-71
2022/07/25 03:12:00;;;;;;;;;;;;;;;16.11;83.51;97409.08;110251;1247;69801;-72
2022/07/25 03:14:29;;;;;;;;;;;;;;;16.09;83.78;97410.13;110113;1247;68551;-69
2022/07/25 03:16:58;;;;;;;;;;;;;;;16.09;83.22;97413.46;110230;1247;69248;-68
2022/07/25 03:19:29;;;;;;;;;;;;;;;16.09;83.20;97416.10;110336;1246;59697;-69
2022/07/25 03:21:58;;;;;;;;;;;;;;;16.09;83.87;97418.52;110334;1247;59709;-69
2022/07/25 03:24:29;;;;;;;;;;;;;;;16.08;82.73;97420.76;110142;1247;71524;-69
2022/07/25 03:26:59;;;;;;;;;;;;;;;16.09;82.97;97425.25;110305;1247;67112;-70
2022/07/25 03:29:28;;;;;;;;;;;;;;;16.11;83.03;97424.15;110240;1245;69441;-70
2022/07/25 03:31:58;;;;;;;;;;;;;;;16.15;84.02;97422.39;110230;1247;59702;-70
2022/07/25 03:34:28;;;;;;;;;;;;;;;16.19;83.98;97420.92;110215;1247;59658;-71
2022/07/25 03:36:57;;;;;;;;;;;;;;;16.25;84.34;97421.56;110342;1245;70533;-70
2022/07/25 03:39:26;;;;;;;;;;;;;;;16.30;83.45;97426.05;110560;1244;68523;-69
2022/07/25 03:41:56;;;;;;;;;;;;;;;16.34;82.35;97430.83;110217;1244;69413;-70
2022/07/25 03:44:26;;;;;;;;;;;;;;;16.36;81.88;97429.54;110523;1244;59710;-69
2022/07/25 03:46:55;;;;;;;;;;;;;;;16.37;81.16;97427.55;110565;1244;59696;-70
2022/07/25 03:49:24;;;;;;;;;;;;;;;16.40;82.29;97426.71;110287;1247;71499;-70
2022/07/25 03:51:53;;;;;;;;;;;;;;;16.42;82.38;97426.11;110319;1247;68536;-70
2022/07/25 03:54:22;;;;;;;;;;;;;;;16.45;82.25;97426.02;110434;1244;69331;-71
2022/07/25 03:56:51;;;;;;;;;;;;;;;16.49;82.43;97418.73;110574;1243;59753;-69
2022/07/25 03:59:21;;;;;;;;;;;;;;;16.56;82.67;97417.38;110561;1244;59606;-71
2022/07/25 04:01:51;;;;;;;;;;;;;;;16.66;80.21;97416.40;110544;1244;71420;-71
2022/07/25 04:04:20;;;;;;;;;;;;;;;16.73;77.77;97412.18;110319;1244;68625;-71
2022/07/25 04:06:50;;;;;;;;;;;;;;;16.77;78.12;97413.59;110308;1245;68642;-70
2022/07/25 04:09:20;;;;;;;;;;;;;;;16.76;80.70;97417.39;110260;1245;59796;-70
2022/07/25 04:11:49;;;;;;;;;;;;;;;16.80;79.73;97421.54;110250;1244;59673;-73
2022/07/25 04:14:18;;;;;;;;;;;;;;;16.85;80.55;97421.44;110579;1244;70581;-70
2022/07/25 04:16:47;;;;;;;;;;;;;;;16.90;80.59;97421.34;110458;1244;68457;-72
2022/07/25 04:19:18;;;;;;;;;;;;;;;16.91;80.28;97420.02;110257;1247;68438;-69
2022/07/25 04:21:47;;;;;;;;;;;;;;;16.98;80.03;97416.61;110426;1244;59685;-71
2022/07/25 04:24:17;;;;;;;;;;;;;;;17.09;79.82;97415.16;110526;1244;59624;-70
2022/07/25 04:26:46;;;;;;;;;;;;;;;17.29;79.38;97414.64;110450;1244;71256;-70
2022/07/25 04:29:15;;;;;;;;;;;;;;;17.53;78.45;97419.91;110499;1244;68381;-69
2022/07/25 04:31:44;;;;;;;;;;;;;;;17.73;77.63;97418.84;110506;1244;69444;-73
2022/07/25 04:34:14;;;;;;;;;;;;;;;17.87;77.13;97420.42;110465;1244;59776;-70
2022/07/25 04:36:43;;;;;;;;;;;;;;;18.03;76.09;97420.51;110260;1245;59713;-68
2022/07/25 04:39:12;;;;;;;;;;;;;;;18.17;75.56;97422.45;110277;1247;71716;-75
2022/07/25 04:41:41;;;;;;;;;;;;;;;18.28;75.28;97423.39;110538;1243;67972;-71
2022/07/25 04:44:10;;;;;;;;;;;;;;;18.42;75.01;97422.18;110508;1244;67600;-71
2022/07/25 04:46:39;;;;;;;;;;;;;;;18.50;74.39;97422.54;110430;1244;59685;-69
2022/07/25 04:49:08;;;;;;;;;;;;;;;18.52;74.11;97415.70;110511;1244;59655;-69
2022/07/25 04:51:37;;;;;;;;;;;;;;;18.58;74.69;97420.45;110249;1245;71549;-69
2022/07/25 04:54:08;;;;;;;;;;;;;;;18.66;74.71;97422.20;110467;1244;68233;-69
2022/07/25 04:56:37;;;;;;;;;;;;;;;18.80;74.07;97415.13;110432;1244;69534;-69
2022/07/25 04:59:06;;;;;;;;;;;;;;;18.95;73.28;97413.86;110442;1244;59704;-70
2022/07/25 05:01:35;;;;;;;;;;;;;;;19.04;73.14;97413.77;110227;1246;59634;-70
2022/07/25 05:04:04;;;;;;;;;;;;;;;19.18;73.04;97416.16;110219;1245;71515;-71
2022/07/25 05:06:33;;;;;;;;;;;;;;;19.29;73.15;97417.42;110128;1247;68615;-69
2022/07/25 05:09:02;;;;;;;;;;;;;;;19.48;72.05;97418.60;110337;1245;69389;-69
2022/07/25 05:11:31;;;;;;;;;;;;;;;19.61;71.31;97420.02;110202;1247;59692;-68
2022/07/25 05:14:00;;;;;;;;;;;;;;;19.67;71.04;97423.02;110174;1247;59658;-69
2022/07/25 05:16:29;;;;;;;;;;;;;;;19.96;70.56;97425.14;110224;1246;70671;-70
2022/07/25 05:18:59;;;;;;;;;;;;;;;20.42;70.56;97421.92;110173;1247;68561;-69
2022/07/25 05:21:28;;;;;;;;;;;;;;;20.99;70.16;97422.38;110304;1244;68760;-71
2022/07/25 05:23:57;;;;;;;;;;;;;;;21.61;69.23;97416.91;110466;1244;59704;-69
2022/07/25 05:26:26;;;;;;;;;;;;;;;22.13;65.81;97424.29;110232;1246;59712;-70
2022/07/25 05:28:55;;;;;;;;;;;;;;;22.32;61.32;97425.45;110256;1246;71530;-69
2022/07/25 05:31:24;;;;;;;;;;;;;;;22.72;62.28;97428.80;110252;1244;68579;-72
2022/07/25 05:33:56;;;;;;;;;;;;;;;23.25;63.87;97421.78;110238;1244;69822;-69
2022/07/25 05:36:26;;;;;;;;;;;;;;;23.64;58.98;97421.52;110579;1244;59742;-70
2022/07/25 05:38:55;;;;;;;;;;;;;;;23.86;57.00;97422.71;110214;1247;59701;-69
2022/07/25 05:41:24;;;;;;;;;;;;;;;24.05;56.10;97423.98;110224;1247;71596;-67
2022/07/25 05:43:53;;;;;;;;;;;;;;;24.28;57.71;97425.10;110561;1244;68615;-69
2022/07/25 05:46:22;;;;;;;;;;;;;;;24.50;57.40;97422.03;110529;1244;69370;-69
2022/07/25 05:48:53;;;;;;;;;;;;;;;24.33;55.71;97421.02;110397;1244;59700;-69
2022/07/25 05:51:21;;;;;;;;;;;;;;;24.34;56.19;97417.16;110244;1244;60146;-69
2022/07/25 05:53:54;;;;;;;;;;;;;;;24.23;55.42;97416.48;110224;1247;70652;-70
2022/07/25 05:56:23;;;;;;;;;;;;;;;24.16;55.34;97412.42;110255;1245;67835;-72
2022/07/25 05:58:52;;;;;;;;;;;;;;;24.08;55.22;97413.36;110171;1247;68468;-69
2022/07/25 06:01:21;;;;;;;;;;;;;;;24.01;55.30;97405.88;110178;1247;59705;-72
2022/07/25 06:03:50;;;;;;;;;;;;;;;24.05;56.11;97401.17;110553;1244;59683;-71
2022/07/25 06:06:20;;;;;;;;;;;;;;;24.24;56.28;97400.79;110161;1247;71603;-69
2022/07/25 06:08:49;;;;;;;;;;;;;;;24.47;54.86;97402.00;110229;1247;67772;-70
2022/07/25 06:11:21;;;;;;;;;;;;;;;24.69;55.38;97400.09;110275;1244;69517;-72
2022/07/25 06:13:50;;;;;;;;;;;;;;;25.10;54.14;97396.17;110193;1247;59822;-69
2022/07/25 06:16:20;;;;;;;;;;;;;;;25.55;54.18;97394.63;110398;1245;59679;-70
2022/07/25 06:18:49;;;;;;;;;;;;;;;25.94;52.28;97397.86;110474;1243;70775;-71
2022/07/25 06:21:18;;;;;;;;;;;;;;;26.21;50.44;97397.22;110402;1244;67640;-70
2022/07/25 06:23:47;;;;;;;;;;;;;;;26.46;50.16;97402.39;110486;1244;68607;-69
2022/07/25 06:26:15;;;;;;;;;;;;;;;26.33;49.00;97395.77;110519;1244;59707;-70
2022/07/25 06:28:44;;;;;;;;;;;;;;;26.51;48.13;97395.35;110211;1244;59633;-71
2022/07/25 06:31:14;;;;;;;;;;;;;;;26.76;47.45;97397.05;110417;1244;70586;-70
2022/07/25 06:33:44;;;;;;;;;;;;;;;26.87;47.16;97392.25;110545;1244;68604;-70
2022/07/25 06:36:13;;;;;;;;;;;;;;;26.42;47.74;97389.80;110178;1247;68466;-71
2022/07/25 06:38:42;;;;;;;;;;;;;;;26.10;48.52;97388.35;110193;1247;59737;-73
2022/07/25 06:41:14;;;;;;;;;;;;;;;26.45;47.95;97392.48;110209;1247;59723;-71
2022/07/25 06:43:43;;;;;;;;;;;;;;;26.87;47.21;97383.27;110218;1247;71817;-70
2022/07/25 06:46:12;;;;;;;;;;;;;;;27.08;45.78;97382.17;110251;1245;67943;-69
2022/07/25 06:48:42;;;;;;;;;;;;;;;27.19;45.30;97378.94;110218;1246;69719;-69
2022/07/25 06:51:11;;;;;;;;;;;;;;;27.24;45.03;97374.27;110205;1247;59726;-70
2022/07/25 06:53:40;;;;;;;;;;;;;;;27.61;45.15;97371.67;110260;1247;59688;-70
2022/07/25 06:56:09;;;;;;;;;;;;;;;27.89;44.33;97374.52;110257;1247;71569;-73
2022/07/25 06:58:44;;;;;;;;;;;;;;;27.88;43.38;97370.50;110386;1244;67638;-71
2022/07/25 07:01:13;;;;;;;;;;;;;;;27.92;44.11;97377.73;110537;1244;68453;-73
2022/07/25 07:03:42;;;;;;;;;;;;;;;28.11;42.08;97372.08;110348;1246;59726;-70
2022/07/25 07:06:11;;;;;;;;;;;;;;;28.32;42.16;97374.30;110218;1247;59702;-70
2022/07/25 07:08:40;;;;;;;;;;;;;;;28.41;41.25;97374.31;110122;1247;71697;-70
2022/07/25 07:11:08;;;;;;;;;;;;;;;28.31;41.12;97375.08;110237;1247;67801;-70
2022/07/25 07:13:37;;;;;;;;;;;;;;;28.08;41.55;97372.31;110388;1245;69434;-71
2022/07/25 07:16:06;;;;;;;;;;;;;;;28.18;41.32;97374.04;110269;1244;59716;-70
2022/07/25 07:18:36;;;;;;;;;;;;;;;28.07;41.25;97374.27;110386;1245;59732;-69
2022/07/25 07:21:05;;;;;;;;;;;;;;;28.11;41.47;97366.80;110217;1247;71585;-70
2022/07/25 07:23:35;;;;;;;;;;;;;;;28.23;41.75;97372.41;110238;1247;67990;-70
2022/07/25 07:26:07;;;;;;;;;;;;;;;28.43;41.67;97369.29;110213;1247;69909;-70
2022/07/25 07:28:36;;;;;;;;;;;;;;;28.34;41.36;97367.90;110128;1247;59779;-70
2022/07/25 07:31:04;;;;;;;;;;;;;;;28.34;41.64;97366.46;110404;1245;59733;-70
2022/07/25 07:33:44;;;;;;;;;;;;;;;28.63;40.97;97363.98;110265;1247;71816;-69
2022/07/25 07:36:14;;;;;;;;;;;;;;;28.81;40.49;97359.32;110337;1245;67590;-69
2022/07/25 07:38:47;;;;;;;;;;;;;;;29.29;39.35;97358.36;109735;1247;729910;-69
2022/07/25 07:41:15;;;;;;;;;;;;;;;29.70;38.70;97358.27;110320;1244;59783;-69
2022/07/25 07:43:44;;;;;;;;;;;;;;;30.21;38.66;97357.41;110420;1244;59691;-68
2022/07/25 07:46:14;;;;;;;;;;;;;;;30.48;37.55;97357.19;110556;1244;71400;-72
2022/07/25 07:48:43;;;;;;;;;;;;;;;30.53;37.33;97356.70;110474;1244;66837;-69
2022/07/25 07:51:12;;;;;;;;;;;;;;;30.70;37.61;97359.89;110275;1246;69455;-70
2022/07/25 07:56:44;;;;;;;;;;;;;;;30.76;36.67;97366.77;110061;1244;59749;-70
2022/07/25 07:59:13;;;;;;;;;;;;;;;30.34;37.48;97368.63;110237;1244;70785;-70
2022/07/25 08:01:42;;;;;;;;;;;;;;;30.05;37.79;97366.16;110291;1245;67599;-72
2022/07/25 08:04:10;;;;;;;;;;;;;;;29.91;38.55;97368.70;110526;1244;68071;-70
2022/07/25 08:06:41;;;;;;;;;;;;;;;29.73;38.53;97357.82;110499;1244;59802;-70
2022/07/25 08:09:10;;;;;;;;;;;;;;;29.16;39.41;97356.09;110236;1247;59712;-70
2022/07/25 08:11:39;;;;;;;;;;;;;;;29.34;39.55;97348.30;110320;1244;72702;-71
2022/07/25 08:14:09;;;;;;;;;;;;;;;29.44;39.44;97349.95;110229;1248;68512;-70
2022/07/25 08:16:38;;;;;;;;;;;;;;;30.09;38.91;97347.86;110433;1244;68651;-68
2022/07/25 08:19:07;;;;;;;;;;;;;;;30.66;37.89;97350.92;110227;1247;59608;-69
2022/07/25 08:21:36;;;;;;;;;;;;;;;31.21;36.73;97339.44;110488;1244;59682;-70
2022/07/25 08:24:05;;;;;;;;;;;;;;;31.71;36.12;97346.13;110562;1244;70601;-73
2022/07/25 08:26:35;;;;;;;;;;;;;;;31.63;35.22;97345.08;110557;1244;68045;-70
2022/07/25 08:29:04;;;;;;;;;;;;;;;31.81;34.85;97345.36;110191;1247;68642;-70
2022/07/25 08:31:47;;;;;;;;;;;;;;;31.38;34.82;97341.50;110298;1244;59757;-74
2022/07/25 08:34:16;;;;;;;;;;;;;;;31.35;35.34;97338.29;110326;1244;59773;-70
2022/07/25 08:36:45;;;;;;;;;;;;;;;31.27;35.11;97340.86;110561;1244;71582;-73
2022/07/25 08:39:14;;;;;;;;;;;;;;;31.50;33.87;97337.34;110551;1244;68840;-69
2022/07/25 08:41:43;;;;;;;;;;;;;;;31.24;34.35;97339.71;110134;1248;69467;-72
2022/07/25 08:44:13;;;;;;;;;;;;;;;31.13;34.71;97339.77;110479;1244;59709;-69
2022/07/25 08:46:43;;;;;;;;;;;;;;;31.25;34.57;97338.80;110111;1248;59629;-71
2022/07/25 08:49:12;;;;;;;;;;;;;;;31.48;34.02;97340.54;110281;1244;70722;-73
2022/07/25 08:51:41;;;;;;;;;;;;;;;31.67;33.61;97339.95;110174;1248;68629;-70
2022/07/25 08:54:11;;;;;;;;;;;;;;;31.67;33.00;97341.52;110386;1244;69497;-70
2022/07/25 08:56:41;;;;;;;;;;;;;;;31.97;33.16;97339.59;109954;1248;59729;-71
2022/07/25 08:59:10;;;;;;;;;;;;;;;32.61;32.64;97342.55;110396;1244;59671;-73
2022/07/25 09:01:39;;;;;;;;;;;;;;;32.83;32.08;97343.86;110450;1244;71528;-70
2022/07/25 09:04:08;;;;;;;;;;;;;;;32.71;32.09;97343.48;110215;1244;68547;-70
2022/07/25 09:06:48;;;;;;;;;;;;;;;32.40;32.41;97340.84;110291;1244;68635;-70
2022/07/25 09:09:16;;;;;;;;;;;;;;;32.71;32.52;97338.81;110198;1247;59775;-72
2022/07/25 09:11:45;;;;;;;;;;;;;;;33.12;32.17;97340.09;110459;1244;59681;-70
2022/07/25 09:14:14;;;;;;;;;;;;;;;33.46;31.51;97336.86;110428;1244;70761;-71
2022/07/25 09:16:43;;;;;;;;;;;;;;;33.59;30.95;97335.44;110272;1245;68358;-71
2022/07/25 09:19:14;;;;;;;;;;;;;;;32.99;31.30;97335.77;110447;1244;68441;-71
2022/07/25 09:21:56;;;;;;;;;;;;;;;33.07;30.81;97332.29;110249;1246;59733;-71
2022/07/25 09:24:26;;;;;;;;;;;;;;;32.29;30.65;97328.75;110380;1244;59674;-71
2022/07/25 09:26:57;;;;;;;;;;;;;;;32.52;30.51;97322.26;110225;1247;72147;-70
2022/07/25 09:29:30;;;;;;;;;;;;;;;32.51;28.92;97325.92;110186;1248;68602;-70
2022/07/25 09:32:00;;;;;;;;;;;;;;;32.86;27.56;97326.16;110385;1244;69671;-70
2022/07/25 09:34:30;;;;;;;;;;;;;;;33.05;28.02;97323.46;110328;1244;59703;-70
2022/07/25 09:37:00;;;;;;;;;;;;;;;33.32;26.69;97320.48;110343;1245;59701;-70
2022/07/25 09:39:33;;;;;;;;;;;;;;;33.17;24.61;97320.50;110331;1244;71798;-70
2022/07/25 09:42:13;;;;;;;;;;;;;;;33.93;25.83;97323.34;110187;1247;67790;-69
2022/07/25 09:44:42;;;;;;;;;;;;;;;34.61;25.78;97325.20;110465;1244;68821;-70
2022/07/25 09:47:12;;;;;;;;;;;;;;;34.93;26.53;97319.20;110347;1244;59738;-70
2022/07/25 09:49:42;;;;;;;;;;;;;;;35.33;27.63;97313.31;110443;1244;59707;-69
2022/07/25 09:52:11;;;;;;;;;;;;;;;35.90;25.90;97309.02;110414;1244;71939;-70
2022/07/25 09:54:40;;;;;;;;;;;;;;;35.77;24.70;97310.49;110327;1244;68590;-70
2022/07/25 09:57:09;;;;;;;;;;;;;;;35.88;24.72;97311.82;110209;1247;69494;-70
2022/07/25 09:59:38;;;;;;;;;;;;;;;36.47;24.41;97312.20;110515;1244;59750;-72
2022/07/25 10:02:09;;;;;;;;;;;;;;;36.76;23.82;97308.72;110438;1244;59672;-71
2022/07/25 10:04:42;;;;;;;;;;;;;;;37.19;23.63;97304.98;110486;1244;71329;-71
2022/07/25 10:07:13;;;;;;;;;;;;;;;36.57;21.93;97306.23;110493;1244;68499;-70
2022/07/25 10:09:46;;;;;;;;;;;;;;;35.53;23.40;97300.27;110371;1244;68641;-71
2022/07/25 10:12:20;;;;;;;;;;;;;;;36.11;22.83;97300.42;110215;1245;59655;-73
2022/07/25 10:15:08;;;;;;;;;;;;;;;36.29;23.05;97299.45;110189;1247;59758;-71
2022/07/25 10:17:38;;;;;;;;;;;;;;;36.69;20.72;97291.80;110149;1247;71643;-71
2022/07/25 10:20:08;;;;;;;;;;;;;;;36.98;20.97;97292.35;110220;1246;68012;-70
2022/07/25 10:22:42;;;;;;;;;;;;;;;36.71;21.32;97286.52;110288;1244;69756;-69
2022/07/25 10:25:25;;;;;;;;;;;;;;;37.14;21.51;97283.83;110239;1246;59733;-70
2022/07/25 10:27:59;;;;;;;;;;;;;;;37.02;21.65;97281.48;110227;1247;59739;-73
2022/07/25 10:30:37;;;;;;;;;;;;;;;36.62;22.15;97281.74;110279;1245;70898;-70
2022/07/25 10:33:10;;;;;;;;;;;;;;;36.44;22.27;97279.29;110239;1246;67856;-72
2022/07/25 10:35:39;;;;;;;;;;;;;;;36.02;22.42;97276.37;110209;1247;68481;-70
2022/07/25 10:38:08;;;;;;;;;;;;;;;35.62;23.10;97273.71;110404;1244;59725;-76
2022/07/25 10:40:37;;;;;;;;;;;;;;;35.40;23.36;97269.11;110434;1244;59724;-71
2022/07/25 10:43:21;;;;;;;;;;;;;;;35.60;22.59;97265.89;110233;1244;71020;-76
2022/07/25 10:45:55;;;;;;;;;;;;;;;35.42;23.25;97264.71;110503;1244;68013;-71
2022/07/25 10:48:25;;;;;;;;;;;;;;;35.39;23.07;97263.57;110452;1244;69439;-74
2022/07/25 10:50:57;;;;;;;;;;;;;;;35.15;22.28;97256.86;110261;1245;59717;-73
2022/07/25 10:53:34;;;;;;;;;;;;;;;34.75;24.00;97260.63;110303;1244;59694;-75
2022/07/25 10:56:03;;;;;;;;;;;;;;;34.21;23.46;97264.80;110420;1244;71709;-69
2022/07/25 10:58:47;;;;;;;;;;;;;;;34.18;24.90;97267.38;110452;1244;68555;-73
2022/07/25 11:01:24;;;;;;;;;;;;;;;33.82;25.41;97264.13;110381;1244;69465;-69
2022/07/25 11:03:55;;;;;;;;;;;;;;;33.58;26.50;97257.12;110474;1244;59760;-70
2022/07/25 11:06:36;;;;;;;;;;;;;;;33.22;27.07;97252.11;110386;1244;59747;-69
2022/07/25 11:09:19;;;;;;;;;;;;;;;32.73;27.93;97251.59;110479;1244;71500;-71
2022/07/25 11:11:56;;;;;;;;;;;;;;;32.95;28.71;97247.73;110231;1247;68469;-70
2022/07/25 11:14:32;;;;;;;;;;;;;;;33.38;27.61;97241.33;110153;1247;68790;-69
2022/07/25 11:17:13;;;;;;;;;;;;;;;33.98;26.32;97237.70;110451;1244;59764;-69
2022/07/25 11:19:42;;;;;;;;;;;;;;;33.90;26.54;97238.27;110419;1244;59684;-69
2022/07/25 11:22:12;;;;;;;;;;;;;;;33.72;26.18;97235.84;110477;1244;70581;-69
2022/07/25 11:24:45;;;;;;;;;;;;;;;33.54;27.74;97233.84;110262;1245;68522;-70
2022/07/25 11:27:21;;;;;;;;;;;;;;;33.38;28.04;97232.55;110322;1245;68649;-69
2022/07/25 11:29:50;;;;;;;;;;;;;;;33.58;26.71;97228.08;110316;1245;59701;-69
2022/07/25 11:32:20;;;;;;;;;;;;;;;33.88;27.21;97227.99;110195;1247;59633;-69
2022/07/25 11:34:51;;;;;;;;;;;;;;;33.95;26.57;97224.55;110282;1244;72101;-70
2022/07/25 11:37:20;;;;;;;;;;;;;;;34.35;26.28;97213.40;110428;1244;67438;-70
2022/07/25 11:39:49;;;;;;;;;;;;;;;34.58;24.74;97212.58;110234;1245;68556;-70
2022/07/25 11:42:18;;;;;;;;;;;;;;;34.86;24.85;97208.03;110455;1244;59670;-69
2022/07/25 11:44:48;;;;;;;;;;;;;;;35.03;23.94;97206.73;110308;1245;59670;-70
2022/07/25 11:47:23;;;;;;;;;;;;;;;35.31;23.81;97205.23;110500;1244;71346;-71
2022/07/25 11:49:53;;;;;;;;;;;;;;;35.52;23.06;97198.84;110311;1245;68406;-70
2022/07/25 11:52:24;;;;;;;;;;;;;;;35.34;22.70;97192.84;110248;1247;69540;-69
2022/07/25 11:54:55;;;;;;;;;;;;;;;35.37;23.98;97192.17;110237;1247;59773;-70
2022/07/25 11:57:24;;;;;;;;;;;;;;;35.36;23.75;97182.93;110105;1247;59747;-69
2022/07/25 11:59:53;;;;;;;;;;;;;;;35.57;23.52;97184.69;110072;1250;71586;-70
2022/07/25 12:02:22;;;;;;;;;;;;;;;35.47;22.83;97183.50;110534;1244;68567;-69
2022/07/25 12:05:00;;;;;;;;;;;;;;;34.96;23.18;97179.70;110362;1245;68679;-70
2022/07/25 12:07:38;;;;;;;;;;;;;;;35.29;23.33;97178.87;110289;1245;59706;-70
2022/07/25 12:10:08;;;;;;;;;;;;;;;35.19;22.43;97174.50;110465;1245;59691;-70
2022/07/25 12:12:50;;;;;;;;;;;;;;;34.67;22.20;97172.30;110424;1244;70613;-71
2022/07/25 12:15:21;;;;;;;;;;;;;;;34.51;22.67;97171.48;110254;1245;68394;-69
2022/07/25 12:17:50;;;;;;;;;;;;;;;34.22;22.86;97170.95;110462;1244;69653;-73
2022/07/25 12:20:22;;;;;;;;;;;;;;;34.12;23.23;97170.50;110407;1245;59751;-71
2022/07/25 12:22:52;;;;;;;;;;;;;;;33.73;22.88;97167.81;110281;1247;59662;-72
2022/07/25 12:25:20;;;;;;;;;;;;;;;33.93;23.09;97166.64;110336;1246;71498;-70
2022/07/25 12:27:57;;;;;;;;;;;;;;;33.55;23.42;97162.38;110526;1244;68086;-72
2022/07/25 12:30:27;;;;;;;;;;;;;;;33.17;23.59;97155.34;110547;1244;69715;-69
2022/07/25 12:32:57;;;;;;;;;;;;;;;33.54;24.28;97150.13;110544;1245;59698;-70
2022/07/25 12:35:27;;;;;;;;;;;;;;;33.97;23.55;97141.71;110384;1244;60037;-72
2022/07/25 12:37:56;;;;;;;;;;;;;;;34.13;22.63;97133.95;110165;1247;70647;-71
2022/07/25 12:40:25;;;;;;;;;;;;;;;33.64;22.42;97138.75;110346;1247;67607;-70
2022/07/25 12:42:55;;;;;;;;;;;;;;;33.72;23.07;97139.08;110432;1244;70053;-70
2022/07/25 12:45:24;;;;;;;;;;;;;;;34.18;23.50;97134.06;110215;1247;59742;-75
2022/07/25 12:47:52;;;;;;;;;;;;;;;34.57;22.99;97129.00;110289;1247;59766;-75
2022/07/25 12:50:24;;;;;;;;;;;;;;;34.84;21.59;97122.35;110215;1247;71334;-76
2022/07/25 12:52:53;;;;;;;;;;;;;;;34.93;20.47;97118.77;110279;1245;67641;-74
2022/07/25 12:55:22;;;;;;;;;;;;;;;35.07;19.64;97122.98;110093;1247;69436;-74